createdAt,value
2022-10-30T00:01:22.477Z,12.03
2022-10-30T00:03:50.759Z,11.92
2022-10-30T00:06:19.133Z,12.16
2022-10-30T00:08:47.083Z,12.12
2022-10-30T00:11:15.259Z,12.15
2022-10-30T00:13:44.889Z,12.13
2022-10-30T00:16:12.725Z,11.86
2022-10-30T00:18:42.607Z,12.06
2022-10-30T00:21:14.156Z,12.11
2022-10-30T00:23:52.095Z,11.61
2022-10-30T00:26:22.663Z,12.09
2022-10-30T00:28:56.218Z,12.07
2022-10-30T00:31:24.484Z,11.77
2022-10-30T00:33:54.420Z,12.07
2022-10-30T00:36:23.594Z,12.09
2022-10-30T00:38:51.581Z,12.12
2022-10-30T00:41:24.351Z,11.65
2022-10-30T00:43:53.242Z,11.91
2022-10-30T00:46:33.376Z,11.92
2022-10-30T00:49:14.175Z,12.14
2022-10-30T00:51:49.872Z,12.15
2022-10-30T00:54:19.874Z,12.14
2022-10-30T00:56:49.510Z,11.76
2022-10-30T00:59:26.548Z,12.11
2022-10-30T01:01:55.543Z,12.14
2022-10-30T01:04:29.001Z,12.11
2022-10-30T01:07:00.267Z,12.14
2022-10-30T01:09:28.228Z,11.92
2022-10-30T01:11:58.304Z,11.93
2022-10-30T01:14:26.721Z,12.17
2022-10-30T01:17:40.565Z,12.20
2022-10-30T01:21:00.053Z,12.23
2022-10-30T01:23:54.706Z,12.25
2022-10-30T01:27:10.479Z,12.26
2022-10-30T01:30:03.270Z,12.26
2022-10-30T01:32:49.704Z,12.22
2022-10-30T01:35:23.986Z,12.15
2022-10-30T01:38:12.687Z,11.86
2022-10-30T01:40:40.530Z,11.89
2022-10-30T01:43:09.998Z,11.94
2022-10-30T01:45:43.896Z,11.97
2022-10-30T01:48:36.651Z,11.95
2022-10-30T01:51:42.837Z,11.73
2022-10-30T01:54:41.317Z,11.94
2022-10-30T01:57:11.934Z,11.94
2022-10-30T01:59:56.485Z,11.95
2022-10-30T02:02:25.463Z,11.94
2022-10-30T02:04:55.805Z,11.94
2022-10-30T02:07:23.726Z,11.69
2022-10-30T02:09:54.484Z,11.90
2022-10-30T02:12:23.823Z,11.96
2022-10-30T02:14:59.337Z,11.73
2022-10-30T02:17:28.784Z,11.99
2022-10-30T02:19:56.674Z,11.91
2022-10-30T02:22:25.272Z,11.98
2022-10-30T02:24:53.953Z,11.88
2022-10-30T02:27:25.106Z,11.98
2022-10-30T02:29:56.247Z,11.69
2022-10-30T02:32:24.159Z,11.98
2022-10-30T02:34:52.047Z,11.96
2022-10-30T02:37:20.180Z,11.91
2022-10-30T02:39:48.035Z,11.95
2022-10-30T02:42:16.010Z,11.92
2022-10-30T02:44:44.059Z,11.73
2022-10-30T02:47:11.942Z,11.88
2022-10-30T02:49:39.810Z,11.85
2022-10-30T02:52:09.491Z,11.84
2022-10-30T02:54:37.768Z,11.80
2022-10-30T02:57:05.655Z,11.76
2022-10-30T02:59:33.859Z,11.68
2022-10-30T03:02:01.892Z,11.75
2022-10-30T03:04:29.900Z,11.70
2022-10-30T03:06:57.997Z,11.61
2022-10-30T03:09:25.801Z,11.69
2022-10-30T03:11:53.655Z,11.70
2022-10-30T03:14:24.146Z,11.73
2022-10-30T03:16:52.686Z,11.75
2022-10-30T03:19:20.593Z,11.76
2022-10-30T03:21:49.244Z,11.64
2022-10-30T03:24:17.138Z,11.71
2022-10-30T03:26:47.259Z,11.79
2022-10-30T03:29:15.406Z,11.68
2022-10-30T03:31:45.002Z,11.82
2022-10-30T03:34:20.207Z,11.80
2022-10-30T03:36:48.104Z,11.90
2022-10-30T03:39:16.359Z,11.90
2022-10-30T03:41:46.718Z,11.94
2022-10-30T03:44:14.697Z,11.67
2022-10-30T03:46:42.573Z,11.93
2022-10-30T03:49:30.077Z,11.89
2022-10-30T03:51:58.890Z,11.92
2022-10-30T03:54:27.636Z,11.96
2022-10-30T03:56:55.637Z,11.96
2022-10-30T03:59:26.680Z,11.97
2022-10-30T04:02:14.030Z,11.95
2022-10-30T04:04:42.940Z,11.94
2022-10-30T04:07:10.814Z,11.96
2022-10-30T04:09:39.982Z,11.96
2022-10-30T04:12:08.154Z,11.91
2022-10-30T04:14:35.950Z,11.99
2022-10-30T04:17:06.627Z,11.74
2022-10-30T04:19:34.515Z,11.88
2022-10-30T04:22:02.374Z,12.02
2022-10-30T04:24:30.517Z,12.04
2022-10-30T04:26:59.424Z,12.03
2022-10-30T04:29:27.304Z,11.97
2022-10-30T04:31:55.399Z,12.04
2022-10-30T04:34:23.832Z,12.04
2022-10-30T04:36:51.940Z,12.05
2022-10-30T04:39:20.351Z,12.06
2022-10-30T04:41:51.454Z,12.06
2022-10-30T04:44:26.430Z,12.04
2022-10-30T04:46:56.255Z,12.06
2022-10-30T04:49:25.266Z,11.99
2022-10-30T04:51:53.479Z,12.02
2022-10-30T04:54:22.543Z,12.06
2022-10-30T04:56:50.369Z,12.08
2022-10-30T04:59:18.464Z,11.79
2022-10-30T05:01:46.653Z,11.94
2022-10-30T05:04:14.574Z,12.10
2022-10-30T05:06:43.260Z,12.13
2022-10-30T05:09:11.153Z,12.14
2022-10-30T05:11:40.985Z,12.13
2022-10-30T05:14:10.394Z,12.16
2022-10-30T05:16:39.023Z,12.08
2022-10-30T05:19:08.215Z,11.95
2022-10-30T05:21:36.768Z,11.90
2022-10-30T05:24:06.594Z,12.17
2022-10-30T05:26:49.331Z,12.20
2022-10-30T05:29:17.724Z,12.22
2022-10-30T05:31:46.171Z,12.20
2022-10-30T05:34:35.294Z,12.01
2022-10-30T05:37:04.468Z,12.03
2022-10-30T05:39:32.484Z,11.78
2022-10-30T05:42:01.540Z,12.25
2022-10-30T05:44:59.799Z,11.41
2022-10-30T05:47:29.649Z,12.28
2022-10-30T05:50:00.633Z,12.05
2022-10-30T05:52:29.670Z,12.30
2022-10-30T05:55:01.923Z,12.35
2022-10-30T05:57:48.509Z,12.35
2022-10-30T06:00:17.740Z,12.40
2022-10-30T06:02:45.749Z,12.41
2022-10-30T06:05:16.805Z,12.35
2022-10-30T06:07:45.192Z,12.45
2022-10-30T06:10:13.312Z,12.40
2022-10-30T06:13:00.123Z,12.46
2022-10-30T06:15:48.981Z,12.47
2022-10-30T06:18:26.492Z,12.46
2022-10-30T06:20:56.287Z,12.15
2022-10-30T06:23:49.435Z,12.05
2022-10-30T06:26:30.073Z,12.50
2022-10-30T06:29:11.858Z,12.50
2022-10-30T06:31:42.770Z,12.49
2022-10-30T06:34:10.978Z,12.50
2022-10-30T06:36:41.786Z,12.24
2022-10-30T06:39:09.721Z,12.56
2022-10-30T06:42:09.504Z,12.56
2022-10-30T06:44:50.088Z,12.65
2022-10-30T06:47:18.557Z,12.24
2022-10-30T06:49:46.475Z,12.77
2022-10-30T06:52:14.330Z,12.76
2022-10-30T06:54:42.909Z,12.84
2022-10-30T06:57:30.894Z,12.47
2022-10-30T07:00:19.543Z,12.88
2022-10-30T07:03:20.252Z,13.04
2022-10-30T07:05:48.691Z,13.04
2022-10-30T07:08:17.185Z,13.02
2022-10-30T07:10:45.584Z,13.07
2022-10-30T07:13:38.213Z,13.00
2022-10-30T07:16:31.515Z,13.01
2022-10-30T07:19:03.670Z,13.00
2022-10-30T07:21:34.817Z,13.02
2022-10-30T07:24:09.955Z,13.01
2022-10-30T07:27:00.512Z,12.86
2022-10-30T07:29:55.501Z,12.89
2022-10-30T07:32:26.599Z,13.07
2022-10-30T07:35:23.132Z,13.07
2022-10-30T07:38:20.203Z,13.11
2022-10-30T07:40:59.292Z,13.14
2022-10-30T07:43:45.808Z,12.97
2022-10-30T07:46:42.673Z,13.17
2022-10-30T07:49:35.447Z,13.28
2022-10-30T07:52:09.726Z,13.33
2022-10-30T07:54:39.713Z,13.34
2022-10-30T07:57:30.792Z,13.47
2022-10-30T08:00:18.204Z,13.43
2022-10-30T08:03:00.048Z,13.74
2022-10-30T08:05:48.399Z,13.86
2022-10-30T08:08:29.837Z,13.99
2022-10-30T08:11:15.977Z,14.04
2022-10-30T08:13:45.625Z,14.12
2022-10-30T08:16:13.646Z,14.21
2022-10-30T08:18:43.513Z,14.35
2022-10-30T08:21:12.733Z,14.45
2022-10-30T08:23:52.585Z,14.24
2022-10-30T08:26:23.124Z,14.12
2022-10-30T08:28:51.024Z,14.33
2022-10-30T08:31:18.934Z,14.40
2022-10-30T08:34:11.058Z,14.48
2022-10-30T08:36:52.289Z,14.74
2022-10-30T08:39:21.326Z,14.59
2022-10-30T08:42:02.061Z,14.66
2022-10-30T08:44:41.848Z,14.76
2022-10-30T08:47:28.924Z,15.07
2022-10-30T08:49:57.775Z,15.40
2022-10-30T08:52:29.259Z,15.95
2022-10-30T08:54:57.972Z,15.97
2022-10-30T08:57:28.271Z,15.89
2022-10-30T08:59:58.550Z,15.80
2022-10-30T09:02:49.378Z,15.89
2022-10-30T09:05:43.326Z,15.62
2022-10-30T09:08:31.538Z,15.58
2022-10-30T09:11:18.113Z,15.59
2022-10-30T09:13:46.158Z,15.45
2022-10-30T09:16:14.176Z,15.59
2022-10-30T09:18:42.587Z,15.88
2022-10-30T09:21:11.167Z,15.77
2022-10-30T09:23:44.765Z,16.45
2022-10-30T09:26:32.838Z,16.56
2022-10-30T09:29:24.256Z,16.50
2022-10-30T09:32:21.774Z,16.23
2022-10-30T09:35:02.497Z,16.09
2022-10-30T09:37:39.653Z,15.82
2022-10-30T09:40:52.004Z,16.77
2022-10-30T09:43:55.629Z,16.71
2022-10-30T09:46:58.777Z,16.57
2022-10-30T09:49:42.166Z,16.63
2022-10-30T09:52:35.589Z,16.77
2022-10-30T09:55:40.781Z,17.14
2022-10-30T09:58:38.403Z,17.38
2022-10-30T10:01:20.545Z,17.65
2022-10-30T10:04:12.661Z,18.08
2022-10-30T10:06:48.280Z,17.84
2022-10-30T10:09:27.374Z,17.50
2022-10-30T10:12:47.225Z,17.57
2022-10-30T10:15:20.073Z,17.56
2022-10-30T10:17:48.490Z,17.12
2022-10-30T10:20:35.819Z,16.87
2022-10-30T10:23:27.285Z,16.65
2022-10-30T10:25:55.453Z,16.64
2022-10-30T10:28:57.451Z,16.57
2022-10-30T10:31:55.739Z,16.23
2022-10-30T10:34:48.338Z,16.43
2022-10-30T10:37:25.020Z,16.17
2022-10-30T10:40:12.658Z,16.13
2022-10-30T10:42:58.428Z,16.31
2022-10-30T10:46:06.766Z,16.76
2022-10-30T10:49:12.540Z,16.65
2022-10-30T10:51:48.647Z,16.15
2022-10-30T10:54:28.020Z,16.18
2022-10-30T10:56:56.995Z,17.38
2022-10-30T10:59:45.957Z,17.48
2022-10-30T11:02:35.918Z,17.78
2022-10-30T11:05:21.843Z,17.61
2022-10-30T11:07:51.127Z,18.08
2022-10-30T11:10:20.890Z,18.28
2022-10-30T11:12:48.929Z,18.31
2022-10-30T11:15:50.619Z,18.85
2022-10-30T11:18:18.463Z,18.28
2022-10-30T11:21:05.144Z,18.00
2022-10-30T11:23:41.654Z,17.95
2022-10-30T11:26:18.829Z,17.80
2022-10-30T11:29:01.101Z,18.14
2022-10-30T11:31:35.525Z,18.31
2022-10-30T11:34:18.381Z,18.48
2022-10-30T11:36:54.629Z,18.25
2022-10-30T11:39:30.861Z,18.14
2022-10-30T11:42:19.389Z,17.66
2022-10-30T11:44:51.953Z,17.06
2022-10-30T11:47:31.902Z,16.79
2022-10-30T11:50:15.719Z,17.64
2022-10-30T11:52:45.299Z,17.88
2022-10-30T11:55:28.353Z,18.06
2022-10-30T11:57:59.413Z,18.12
2022-10-30T12:00:32.012Z,18.11
2022-10-30T12:03:01.556Z,18.53
2022-10-30T12:05:36.915Z,18.08
2022-10-30T12:08:19.840Z,17.90
2022-10-30T12:11:00.930Z,17.69
2022-10-30T12:13:39.590Z,17.96
2022-10-30T12:16:18.121Z,18.06
2022-10-30T12:19:02.224Z,17.97
2022-10-30T12:21:39.234Z,17.45
2022-10-30T12:24:20.370Z,17.18
2022-10-30T12:26:53.571Z,17.24
2022-10-30T12:29:41.882Z,16.68
2022-10-30T12:32:21.743Z,16.85
2022-10-30T12:35:09.916Z,16.78
2022-10-30T12:37:43.747Z,16.67
2022-10-30T12:40:26.058Z,16.44
2022-10-30T12:43:24.866Z,16.54
2022-10-30T12:46:36.263Z,16.50
2022-10-30T12:49:41.036Z,16.44
2022-10-30T12:52:20.651Z,16.31
2022-10-30T12:55:34.424Z,16.29
2022-10-30T12:58:19.187Z,16.32
2022-10-30T13:01:18.102Z,16.28
2022-10-30T13:04:05.499Z,16.32
2022-10-30T13:06:42.402Z,16.30
2022-10-30T13:09:32.790Z,16.05
2022-10-30T13:12:14.515Z,15.99
2022-10-30T13:14:57.868Z,15.68
2022-10-30T13:17:25.852Z,15.57
2022-10-30T13:19:54.473Z,15.81
2022-10-30T13:22:52.462Z,15.75
2022-10-30T13:25:43.102Z,15.68
2022-10-30T13:28:18.814Z,15.34
2022-10-30T13:31:21.863Z,15.50
2022-10-30T13:33:57.837Z,15.43
2022-10-30T13:37:05.837Z,15.47
2022-10-30T13:40:12.262Z,15.39
2022-10-30T13:43:25.188Z,15.26
2022-10-30T13:46:31.706Z,15.24
2022-10-30T13:49:24.530Z,15.19
2022-10-30T13:52:11.767Z,15.23
2022-10-30T13:54:49.299Z,15.13
2022-10-30T13:57:32.210Z,15.11
2022-10-30T14:00:35.579Z,14.60
2022-10-30T14:03:32.179Z,15.43
2022-10-30T14:06:44.862Z,15.62
2022-10-30T14:09:54.239Z,15.67
2022-10-30T14:12:47.794Z,15.74
2022-10-30T14:15:32.940Z,15.80
2022-10-30T14:18:26.503Z,15.71
2022-10-30T14:21:20.316Z,15.62
2022-10-30T14:24:01.884Z,15.48
2022-10-30T14:26:30.195Z,15.37
2022-10-30T14:28:58.040Z,15.39
2022-10-30T14:31:36.954Z,15.11
2022-10-30T14:34:05.236Z,15.06
2022-10-30T14:36:39.765Z,14.93
2022-10-30T14:39:13.174Z,14.80
2022-10-30T14:42:11.155Z,14.58
2022-10-30T14:44:47.837Z,14.38
2022-10-30T14:47:27.611Z,14.23
2022-10-30T14:50:27.952Z,13.88
2022-10-30T14:53:23.015Z,13.97
2022-10-30T14:56:39.924Z,13.87
2022-10-30T14:59:34.005Z,13.76
2022-10-30T15:02:14.043Z,13.67
2022-10-30T15:05:15.355Z,13.42
2022-10-30T15:07:56.394Z,13.39
2022-10-30T15:10:36.300Z,13.26
2022-10-30T15:13:21.877Z,13.01
2022-10-30T15:16:06.028Z,13.04
2022-10-30T15:18:34.876Z,12.98
2022-10-30T15:21:08.540Z,12.87
2022-10-30T15:23:37.565Z,12.78
2022-10-30T15:26:19.745Z,12.83
2022-10-30T15:28:51.984Z,12.75
2022-10-30T15:31:25.592Z,12.69
2022-10-30T15:33:55.670Z,12.46
2022-10-30T15:36:40.776Z,12.26
2022-10-30T15:39:16.240Z,12.41
2022-10-30T15:41:58.468Z,12.38
2022-10-30T15:44:34.385Z,12.30
2022-10-30T15:47:05.487Z,12.28
2022-10-30T15:49:41.581Z,12.26
2022-10-30T15:52:25.454Z,12.19
2022-10-30T15:55:09.585Z,12.11
2022-10-30T15:58:02.836Z,11.52
2022-10-30T16:00:36.915Z,11.68
2022-10-30T16:03:18.429Z,11.93
2022-10-30T16:05:46.872Z,11.62
2022-10-30T16:08:25.266Z,11.97
2022-10-30T16:10:55.271Z,11.49
2022-10-30T16:13:30.356Z,11.76
2022-10-30T16:16:00.952Z,11.99
2022-10-30T16:18:35.944Z,12.05
2022-10-30T16:21:09.992Z,12.04
2022-10-30T16:23:41.685Z,11.60
2022-10-30T16:26:27.046Z,12.09
2022-10-30T16:28:55.012Z,12.06
2022-10-30T16:31:24.811Z,11.70
2022-10-30T16:33:53.384Z,12.02
2022-10-30T16:36:21.455Z,11.92
2022-10-30T16:38:50.124Z,11.82
2022-10-30T16:41:24.117Z,11.73
2022-10-30T16:44:13.240Z,11.76
2022-10-30T16:46:58.340Z,11.69
2022-10-30T16:49:35.041Z,11.56
2022-10-30T16:52:06.846Z,11.51
2022-10-30T16:54:41.298Z,11.49
2022-10-30T16:57:26.455Z,11.49
2022-10-30T16:59:56.036Z,11.46
2022-10-30T17:02:28.551Z,11.31
2022-10-30T17:05:10.445Z,11.61
2022-10-30T17:07:39.454Z,11.69
2022-10-30T17:10:29.861Z,11.74
2022-10-30T17:13:35.383Z,10.89
2022-10-30T17:16:36.080Z,11.66
2022-10-30T17:19:31.859Z,11.70
2022-10-30T17:22:08.222Z,11.62
2022-10-30T17:24:38.745Z,11.54
2022-10-30T17:27:33.945Z,11.43
2022-10-30T17:30:02.231Z,11.21
2022-10-30T17:32:45.226Z,11.30
2022-10-30T17:35:19.608Z,11.31
2022-10-30T17:37:48.348Z,11.30
2022-10-30T17:40:18.225Z,11.26
2022-10-30T17:42:50.558Z,11.26
2022-10-30T17:45:19.120Z,11.19
2022-10-30T17:47:47.144Z,10.99
2022-10-30T17:50:15.476Z,10.95
2022-10-30T17:52:43.674Z,11.03
2022-10-30T17:55:30.007Z,11.03
2022-10-30T17:57:58.178Z,10.99
2022-10-30T18:00:26.277Z,11.20
2022-10-30T18:02:54.511Z,11.10
2022-10-30T18:05:26.222Z,11.21
2022-10-30T18:07:54.418Z,11.11
2022-10-30T18:10:22.542Z,11.28
2022-10-30T18:12:50.560Z,11.28
2022-10-30T18:15:30.087Z,11.31
2022-10-30T18:17:58.666Z,11.32
2022-10-30T18:20:28.461Z,11.02
2022-10-30T18:22:57.130Z,11.24
2022-10-30T18:25:28.101Z,10.92
2022-10-30T18:27:56.418Z,11.11
2022-10-30T18:30:24.952Z,11.12
2022-10-30T18:32:52.957Z,11.04
2022-10-30T18:35:39.441Z,11.14
2022-10-30T18:38:08.486Z,11.20
2022-10-30T18:40:36.529Z,11.24
2022-10-30T18:43:04.474Z,11.20
2022-10-30T18:45:37.525Z,11.12
2022-10-30T18:48:05.915Z,11.10
2022-10-30T18:50:35.560Z,11.04
2022-10-30T18:53:10.268Z,10.99
2022-10-30T18:55:41.310Z,10.66
2022-10-30T18:58:09.745Z,10.79
2022-10-30T19:01:10.024Z,10.99
2022-10-30T19:03:28.148Z,11.01
2022-10-30T19:05:57.188Z,10.86
2022-10-30T19:08:25.069Z,10.97
2022-10-30T19:10:57.006Z,10.89
2022-10-30T19:13:25.591Z,10.84
2022-10-30T19:16:02.381Z,10.77
2022-10-30T19:18:32.629Z,10.59
2022-10-30T19:21:06.478Z,10.43
2022-10-30T19:23:35.610Z,10.75
2022-10-30T19:26:04.426Z,10.78
2022-10-30T19:28:33.186Z,10.78
2022-10-30T19:31:01.398Z,10.71
2022-10-30T19:33:29.376Z,10.58
2022-10-30T19:36:07.021Z,10.55
2022-10-30T19:38:35.066Z,10.51
2022-10-30T19:41:03.112Z,10.45
2022-10-30T19:43:31.370Z,10.42
2022-10-30T19:45:59.488Z,10.17
2022-10-30T19:51:15.857Z,10.19
2022-10-30T19:53:43.938Z,9.92
2022-10-30T19:56:15.221Z,9.98
2022-10-30T19:58:43.419Z,10.07
2022-10-30T20:01:14.137Z,10.32
2022-10-30T20:03:42.441Z,10.49
2022-10-30T20:06:13.737Z,10.51
2022-10-30T20:08:42.740Z,10.64
2022-10-30T20:11:10.764Z,10.49
2022-10-30T20:13:47.104Z,10.44
2022-10-30T20:16:19.505Z,10.29
2022-10-30T20:18:47.976Z,10.09
2022-10-30T20:21:20.848Z,10.21
2022-10-30T20:23:55.336Z,9.45
2022-10-30T20:26:28.575Z,10.01
2022-10-30T20:28:58.155Z,10.27
2022-10-30T20:31:46.729Z,10.05
2022-10-30T20:34:17.461Z,10.26
2022-10-30T20:36:45.461Z,10.22
2022-10-30T20:39:17.592Z,10.21
2022-10-30T20:41:57.239Z,10.19
2022-10-30T20:44:25.119Z,10.21
2022-10-30T20:46:53.090Z,10.04
2022-10-30T20:49:26.541Z,9.72
2022-10-30T20:51:54.613Z,10.22
2022-10-30T20:54:22.993Z,10.22
2022-10-30T20:56:51.040Z,10.25
2022-10-30T20:59:23.951Z,10.25
2022-10-30T21:01:56.138Z,10.25
2022-10-30T21:04:28.593Z,10.26
2022-10-30T21:06:57.768Z,10.30
2022-10-30T21:09:57.859Z,10.38
2022-10-30T21:12:32.111Z,9.37
2022-10-30T21:15:31.480Z,10.39
2022-10-30T21:18:06.951Z,10.39
2022-10-30T21:20:36.602Z,10.11
2022-10-30T21:23:06.394Z,9.95
2022-10-30T21:25:34.754Z,10.45
2022-10-30T21:28:03.288Z,10.47
2022-10-30T21:30:31.619Z,10.31
2022-10-30T21:33:00.217Z,10.26
2022-10-30T21:35:28.548Z,10.23
2022-10-30T21:37:56.455Z,10.14
2022-10-30T21:40:24.392Z,10.09
2022-10-30T21:42:52.322Z,9.89
2022-10-30T21:45:20.186Z,9.93
2022-10-30T21:47:52.428Z,9.82
2022-10-30T21:50:20.728Z,9.80
2022-10-30T21:52:48.525Z,9.66
2022-10-30T21:55:18.083Z,9.68
2022-10-30T21:57:46.048Z,9.30
2022-10-30T22:00:15.331Z,9.52
2022-10-30T22:02:43.337Z,9.29
2022-10-30T22:05:11.418Z,9.25
2022-10-30T22:07:39.363Z,9.46
2022-10-30T22:10:08.658Z,9.41
2022-10-30T22:12:36.764Z,9.16
2022-10-30T22:15:05.880Z,9.35
2022-10-30T22:17:35.161Z,9.26
2022-10-30T22:20:03.733Z,9.19
2022-10-30T22:22:31.647Z,9.11
2022-10-30T22:24:59.595Z,9.05
2022-10-30T22:27:27.647Z,8.97
2022-10-30T22:29:55.952Z,9.01
2022-10-30T22:32:27.331Z,8.96
2022-10-30T22:34:56.773Z,8.94
2022-10-30T22:37:25.495Z,8.96
2022-10-30T22:39:53.637Z,8.95
2022-10-30T22:42:22.918Z,8.99
2022-10-30T22:44:51.014Z,8.98
2022-10-30T22:47:18.955Z,8.99
2022-10-30T22:49:46.893Z,8.82
2022-10-30T22:52:14.812Z,8.89
2022-10-30T22:54:42.835Z,8.90
2022-10-30T22:57:10.940Z,8.87
2022-10-30T22:59:38.994Z,8.87
2022-10-30T23:02:07.161Z,8.81
2022-10-30T23:04:35.438Z,8.53
2022-10-30T23:07:03.356Z,8.66
2022-10-30T23:09:31.449Z,8.66
2022-10-30T23:12:00.079Z,8.57
2022-10-30T23:14:28.105Z,8.65
2022-10-30T23:16:55.961Z,8.73
2022-10-30T23:19:29.287Z,8.71
2022-10-30T23:21:59.169Z,8.49
2022-10-30T23:24:27.699Z,8.53
2022-10-30T23:26:55.754Z,8.74
2022-10-30T23:29:23.633Z,8.71
2022-10-30T23:31:51.636Z,8.69
2022-10-30T23:34:19.826Z,8.71
2022-10-30T23:36:47.841Z,8.57
2022-10-30T23:39:17.876Z,8.58
2022-10-30T23:41:46.607Z,8.80
2022-10-30T23:44:16.212Z,8.73
2022-10-30T23:46:44.471Z,8.83
2022-10-30T23:49:12.749Z,8.76
2022-10-30T23:51:55.483Z,8.65
2022-10-30T23:54:23.627Z,8.85
2022-10-30T23:56:51.547Z,8.86
2022-10-30T23:59:19.753Z,8.89
